Estación Meteorológica Peña el Pijo (Robertgarden) [ 09/22/18 22:21:38 CEST ]

Fecha Hora Presion(HPa) Temp (°C) Humedad % Rocio (°C) Viento ( m/s) Direccion Lluvia 1Hora(mm) Lluvia 24H(mm) LLuvia Total(mm)
2018-May-08 01:01:24 1006.300 9.1 74 4.7         205.12
2018-May-08 02:01:53 1006.000 7.8 76 3.8         205.12
2018-May-08 03:03:13 1005.900 6.4 79 3.0         205.12
2018-May-08 04:01:55 1005.500 6.1 81 3.1         205.12
2018-May-08 05:02:03 1005.300 5.6 82 2.7         205.12
2018-May-08 06:01:43 1005.000 5.8 83 3.1         205.12
2018-May-08 07:01:56 1005.000 6.1 83 3.4         205.12
2018-May-08 08:01:36 1005.000 7.3 85 4.9         205.12
2018-May-08 09:01:39 1004.800 13.1 80 9.7         205.12
2018-May-08 10:01:52 1004.600 19.4 57 10.6 1.1 W     205.12
2018-May-08 11:01:45 1004.800 22.1 44 9.2         205.12
2018-May-08 12:01:49 1004.600 21.4 43 8.2         205.12
2018-May-08 13:01:52 1004.400 21.8 44 8.9         205.12
2018-May-08 14:01:46 1004.000 20.1 47 8.4         205.12
2018-May-08 15:01:50 1003.900 20.4 44 7.7 0.7 N     205.12
2018-May-08 16:01:45 1004.100 17.5 53 7.8         205.12
2018-May-08 17:01:42 1003.400 21.1 48 9.6         205.12
2018-May-08 18:01:43 1003.800 19.3 51 8.9 2.1 S     205.12
2018-May-08 19:01:48 1004.400 14.6 66 8.3         205.12
2018-May-08 20:01:42 1003.900 13.4 74 8.8     0.51 0.51 205.64
2018-May-08 21:01:44 1004.200 12.2 76 8.1       0.51 205.64
2018-May-08 22:01:48 1004.300 10.8 80 7.5       0.51 205.64
2018-May-08 23:01:46 1005.000 10.4 82 7.4       0.51 205.64

Temperatura Máxima:22°    Temperatura Mínima:
Presión Máxima:1006.300 Hpa    Presión Mínima:1003.400 Hpa


Volver